Time;durP1;ratioP1;P1;durP2;ratioP2;P2;SDS_P1;SDS_P2;PMS_P1;PMS_P2;Temp;Humidity;BMP_temperature;BMP_pressure;BME280_temperature;BME280_humidity;BME280_pressure;Samples;Min_cycle;Max_cycle;Signal;HPM_P1;HPM_P2
2023/05/01 00:02:01;;;;;;;;;;;;;;;9.70;59.46;99156.53;5065789;28;19920;-82
2023/05/01 00:04:26;;;;;;;;;;;;;;;9.69;58.87;99158.41;5049732;28;20462;-81
2023/05/01 00:06:51;;;;;;;;;;;;;;;9.68;58.98;99158.63;5065693;28;20308;-82
2023/05/01 00:09:17;;;;;;;;;;;;;;;9.60;58.92;99151.81;5064751;28;20732;-82
2023/05/01 00:11:42;;;;;;;;;;;;;;;9.68;58.76;99146.13;5065601;28;19924;-83
2023/05/01 00:14:07;;;;;;;;;;;;;;;9.59;58.30;99144.84;5051712;28;20019;-82
2023/05/01 00:16:34;;;;;;;;;;;;;;;9.50;59.04;99145.47;5067417;28;19928;-82
2023/05/01 00:18:59;;;;;;;;;;;;;;;9.51;58.89;99137.22;5067948;28;20839;-82
2023/05/01 00:21:24;;;;;;;;;;;;;;;9.60;58.70;99140.34;5067842;28;19929;-82
2023/05/01 00:23:50;;;;;;;;;;;;;;;9.50;58.40;99132.16;5066629;28;20262;-82
2023/05/01 00:26:15;;;;;;;;;;;;;;;9.54;58.45;99130.63;5069571;28;19924;-83
2023/05/01 00:28:41;;;;;;;;;;;;;;;9.48;58.98;99128.91;5052308;28;19942;-83
2023/05/01 00:31:06;;;;;;;;;;;;;;;9.56;58.75;99123.19;5049907;28;20253;-83
2023/05/01 00:33:32;;;;;;;;;;;;;;;9.54;58.71;99122.63;5049159;28;19964;-83
2023/05/01 00:35:58;;;;;;;;;;;;;;;9.57;59.02;99116.81;5062780;28;20588;-83
2023/05/01 00:38:23;;;;;;;;;;;;;;;9.52;58.77;99117.50;5052340;28;19927;-83
2023/05/01 00:40:48;;;;;;;;;;;;;;;9.47;59.56;99117.44;5066176;28;19916;-83
2023/05/01 00:43:14;;;;;;;;;;;;;;;9.47;58.79;99121.94;5070407;28;20546;-83
2023/05/01 00:45:42;;;;;;;;;;;;;;;9.46;58.33;99110.47;5049197;28;19924;-83
2023/05/01 00:48:08;;;;;;;;;;;;;;;9.45;59.30;99114.19;5051404;28;19921;-84
2023/05/01 00:50:33;;;;;;;;;;;;;;;9.36;58.48;99112.09;5069626;28;19935;-81
2023/05/01 00:53:00;;;;;;;;;;;;;;;9.34;59.63;99107.03;5070742;28;20027;-80
2023/05/01 00:55:25;;;;;;;;;;;;;;;9.25;58.48;99102.28;5050377;28;19932;-81
2023/05/01 00:57:51;;;;;;;;;;;;;;;9.27;58.72;99100.19;5071037;28;19917;-81
2023/05/01 01:00:18;;;;;;;;;;;;;;;9.29;59.30;99103.44;5066809;28;19939;-81
2023/05/01 01:02:43;;;;;;;;;;;;;;;9.27;59.37;99094.88;5073045;28;19921;-81
2023/05/01 01:05:09;;;;;;;;;;;;;;;9.18;58.97;99096.25;5071198;28;20403;-81
2023/05/01 01:07:50;;;;;;;;;;;;;;;9.23;59.08;99094.53;5070579;28;19925;-81
2023/05/01 01:10:26;;;;;;;;;;;;;;;9.19;58.75;99097.88;5071768;28;19924;-81
2023/05/01 01:12:52;;;;;;;;;;;;;;;9.15;59.94;99086.91;5072965;28;19923;-81
2023/05/01 01:15:23;;;;;;;;;;;;;;;9.18;59.37;99082.94;5069970;28;19917;-82
2023/05/01 01:18:03;;;;;;;;;;;;;;;9.03;59.07;99086.09;5069177;28;19916;-83
2023/05/01 01:20:32;;;;;;;;;;;;;;;9.07;59.72;99074.75;5071075;28;20894;-83
2023/05/01 01:23:03;;;;;;;;;;;;;;;9.03;59.15;99073.59;5082069;28;19927;-82
2023/05/01 01:25:38;;;;;;;;;;;;;;;9.01;59.57;99064.22;5082096;28;19917;-82
2023/05/01 01:28:10;;;;;;;;;;;;;;;9.08;59.06;99070.25;5067298;28;19916;-83
2023/05/01 01:30:38;;;;;;;;;;;;;;;9.03;58.90;99062.94;5061651;28;19920;-82
2023/05/01 01:33:12;;;;;;;;;;;;;;;9.02;59.36;99066.63;5067901;28;19921;-83
2023/05/01 01:35:40;;;;;;;;;;;;;;;8.94;59.85;99053.69;5070377;28;20011;-82
2023/05/01 01:38:08;;;;;;;;;;;;;;;8.95;59.54;99055.28;5078425;28;19928;-83
2023/05/01 01:40:49;;;;;;;;;;;;;;;8.95;59.68;99057.94;5070641;28;19926;-82
2023/05/01 01:43:17;;;;;;;;;;;;;;;8.97;60.02;99049.75;5067020;28;20007;-82
2023/05/01 01:45:45;;;;;;;;;;;;;;;8.95;59.42;99063.28;5069365;28;19931;-83
2023/05/01 01:48:21;;;;;;;;;;;;;;;8.86;59.22;99056.72;5068711;28;19916;-82
2023/05/01 01:50:47;;;;;;;;;;;;;;;8.80;59.22;99046.97;5072171;28;19920;-83
2023/05/01 01:53:16;;;;;;;;;;;;;;;8.83;59.24;99040.38;5075097;28;19974;-82
2023/05/01 01:55:43;;;;;;;;;;;;;;;8.36;60.58;99036.09;5080168;28;19973;-82
2023/05/01 01:58:09;;;;;;;;;;;;;;;8.62;60.98;99043.63;5077960;28;20015;-81
2023/05/01 02:00:35;;;;;;;;;;;;;;;8.83;59.96;99037.72;5071272;28;19978;-81
2023/05/01 02:03:01;;;;;;;;;;;;;;;8.78;59.27;99033.09;5068700;28;20427;-82
2023/05/01 02:05:27;;;;;;;;;;;;;;;8.79;59.98;99029.41;5072412;28;19943;-82
2023/05/01 02:07:53;;;;;;;;;;;;;;;8.90;59.56;99023.25;5064415;28;20301;-82
2023/05/01 02:10:19;;;;;;;;;;;;;;;8.72;60.16;99023.38;5072188;28;19928;-82
2023/05/01 02:12:47;;;;;;;;;;;;;;;8.86;60.51;99024.78;5054634;28;19927;-83
2023/05/01 02:15:14;;;;;;;;;;;;;;;8.92;58.84;99023.00;5072463;28;19927;-82
2023/05/01 02:17:40;;;;;;;;;;;;;;;8.82;59.35;99018.28;5070913;28;19923;-82
2023/05/01 02:20:06;;;;;;;;;;;;;;;8.76;59.97;99019.22;5070713;28;19920;-82
2023/05/01 02:22:32;;;;;;;;;;;;;;;8.47;60.60;99024.66;5068958;28;19917;-82
2023/05/01 02:24:59;;;;;;;;;;;;;;;8.70;60.13;99014.00;5069061;28;20011;-82
2023/05/01 02:27:34;;;;;;;;;;;;;;;8.79;59.07;99015.28;5069269;28;19942;-82
2023/05/01 02:30:00;;;;;;;;;;;;;;;8.45;61.34;99003.63;5070536;28;19925;-82
2023/05/01 02:32:25;;;;;;;;;;;;;;;8.88;59.88;99001.38;5066055;28;19920;-82
2023/05/01 02:34:50;;;;;;;;;;;;;;;8.87;59.82;98997.09;5065655;28;19924;-82
2023/05/01 02:37:16;;;;;;;;;;;;;;;8.78;59.86;98995.84;5070418;28;20011;-82
2023/05/01 02:39:41;;;;;;;;;;;;;;;8.73;60.13;98993.06;5067687;28;19920;-82
2023/05/01 02:42:08;;;;;;;;;;;;;;;8.68;59.86;98992.16;5069884;28;20027;-82
2023/05/01 02:44:42;;;;;;;;;;;;;;;8.69;60.47;98983.91;5072212;28;19963;-82
2023/05/01 02:47:09;;;;;;;;;;;;;;;8.53;59.86;98975.84;5070486;28;20006;-83
2023/05/01 02:49:35;;;;;;;;;;;;;;;8.63;60.24;98976.06;5068206;28;19931;-82
2023/05/01 02:52:02;;;;;;;;;;;;;;;8.58;60.15;98978.63;5065761;28;20023;-80
2023/05/01 02:54:28;;;;;;;;;;;;;;;8.65;60.02;98961.47;5066616;28;20292;-81
2023/05/01 02:56:53;;;;;;;;;;;;;;;8.56;59.88;98960.22;5069315;28;19963;-81
2023/05/01 02:59:19;;;;;;;;;;;;;;;8.57;60.78;98972.50;5066798;28;19971;-81
2023/05/01 03:01:44;;;;;;;;;;;;;;;8.56;60.92;98957.56;5070462;28;19916;-82
2023/05/01 03:04:09;;;;;;;;;;;;;;;8.50;60.36;98955.84;5052580;28;19921;-82
2023/05/01 03:06:34;;;;;;;;;;;;;;;8.46;60.82;98957.34;5051740;28;19935;-81
2023/05/01 03:09:00;;;;;;;;;;;;;;;8.43;60.94;98955.13;5063834;28;19932;-81
2023/05/01 03:11:25;;;;;;;;;;;;;;;8.42;59.93;98948.22;5068831;28;19970;-81
2023/05/01 03:13:51;;;;;;;;;;;;;;;8.27;61.16;98951.34;5066411;28;19920;-81
2023/05/01 03:16:16;;;;;;;;;;;;;;;8.38;60.55;98956.88;5070174;28;19920;-82
2023/05/01 03:18:41;;;;;;;;;;;;;;;8.15;61.62;98953.13;5049195;28;19956;-82
2023/05/01 03:21:07;;;;;;;;;;;;;;;8.41;60.90;98946.56;5064172;28;19924;-82
2023/05/01 03:23:32;;;;;;;;;;;;;;;8.40;60.92;98949.47;5067272;28;20004;-82
2023/05/01 03:25:58;;;;;;;;;;;;;;;8.38;61.31;98944.41;5067027;28;20292;-82
2023/05/01 03:28:23;;;;;;;;;;;;;;;8.32;60.81;98943.47;5070505;28;19936;-81
2023/05/01 03:30:49;;;;;;;;;;;;;;;8.11;61.77;98943.19;5070113;28;19920;-82
2023/05/01 03:33:14;;;;;;;;;;;;;;;8.28;60.98;98936.16;5073310;28;21146;-81
2023/05/01 03:35:39;;;;;;;;;;;;;;;8.37;60.60;98941.94;5052234;28;20289;-81
2023/05/01 03:38:05;;;;;;;;;;;;;;;8.30;60.32;98942.06;5068641;28;19925;-82
2023/05/01 03:40:30;;;;;;;;;;;;;;;8.17;61.23;98936.94;5055333;28;19951;-82
2023/05/01 03:42:55;;;;;;;;;;;;;;;8.12;60.97;98932.34;5070876;28;19982;-82
2023/05/01 04:03:38;;;;;;;;;;;;;;;8.16;61.26;98932.69;5066462;28;19985;-82
2023/05/01 04:06:03;;;;;;;;;;;;;;;8.10;60.54;98922.97;5065083;28;19916;-82
2023/05/01 04:08:29;;;;;;;;;;;;;;;8.07;61.21;98915.44;5073963;22;19985;-76
2023/05/01 04:11:00;;;;;;;;;;;;;;;8.06;61.42;98914.63;5067215;28;20062;-76
2023/05/01 04:13:25;;;;;;;;;;;;;;;8.19;61.14;98921.59;5053898;28;19929;-76
2023/05/01 04:15:51;;;;;;;;;;;;;;;8.10;61.90;98912.34;5062828;28;19920;-76
2023/05/01 04:18:16;;;;;;;;;;;;;;;8.09;60.96;98906.22;5059231;28;19931;-76
2023/05/01 04:20:41;;;;;;;;;;;;;;;8.14;61.33;98908.19;5062534;28;21230;-76
2023/05/01 04:23:08;;;;;;;;;;;;;;;8.10;61.57;98915.00;5062034;28;19924;-76
2023/05/01 04:25:33;;;;;;;;;;;;;;;8.07;61.21;98907.47;5060499;28;20008;-76
2023/05/01 04:27:59;;;;;;;;;;;;;;;8.19;60.95;98910.97;5053000;28;20019;-76
2023/05/01 04:30:24;;;;;;;;;;;;;;;8.17;61.16;98903.19;5049583;28;19924;-76
2023/05/01 04:32:49;;;;;;;;;;;;;;;8.18;61.62;98904.84;5061110;28;19928;-76
2023/05/01 04:35:15;;;;;;;;;;;;;;;8.29;60.88;98906.72;5054304;28;19964;-76
2023/05/01 04:37:40;;;;;;;;;;;;;;;8.29;61.69;98904.06;5052297;28;19947;-76
2023/05/01 04:40:06;;;;;;;;;;;;;;;8.39;61.54;98900.78;5053958;28;19928;-76
2023/05/01 04:42:32;;;;;;;;;;;;;;;8.28;61.32;98901.59;5055037;28;19920;-76
2023/05/01 04:45:00;;;;;;;;;;;;;;;8.27;61.23;98897.34;5039675;28;20137;-76
2023/05/01 04:47:25;;;;;;;;;;;;;;;8.39;61.16;98898.13;5063482;28;19916;-77
2023/05/01 04:49:51;;;;;;;;;;;;;;;8.37;61.92;98897.56;5070183;28;19927;-76
2023/05/01 04:52:16;;;;;;;;;;;;;;;8.44;61.27;98902.75;5073372;28;19989;-76
2023/05/01 04:54:41;;;;;;;;;;;;;;;7.87;63.41;98901.69;5066572;28;19924;-76
2023/05/01 04:57:07;;;;;;;;;;;;;;;7.28;66.88;98908.72;5078467;28;19931;-76
2023/05/01 04:59:32;;;;;;;;;;;;;;;7.03;68.51;98908.03;5083141;28;20368;-76
2023/05/01 05:01:57;;;;;;;;;;;;;;;7.42;66.07;98909.34;5082309;28;20340;-76
2023/05/01 05:04:23;;;;;;;;;;;;;;;7.28;68.07;98906.06;5079353;28;20398;-76
2023/05/01 05:06:48;;;;;;;;;;;;;;;7.62;65.19;98911.69;5078313;28;20041;-76
2023/05/01 05:09:13;;;;;;;;;;;;;;;7.88;65.18;98911.28;5082438;28;20440;-76
2023/05/01 05:11:40;;;;;;;;;;;;;;;7.11;67.06;98914.88;5064052;28;19979;-76
2023/05/01 05:14:05;;;;;;;;;;;;;;;7.82;64.68;98905.03;5081410;28;19969;-76
2023/05/01 05:16:30;;;;;;;;;;;;;;;8.29;62.78;98904.06;5081222;28;19924;-76
2023/05/01 05:18:56;;;;;;;;;;;;;;;8.14;63.88;98916.16;5083060;28;19939;-76
2023/05/01 05:21:21;;;;;;;;;;;;;;;8.03;63.08;98906.31;5076720;28;19973;-76
2023/05/01 05:23:47;;;;;;;;;;;;;;;8.22;63.13;98905.97;5080021;28;19924;-76
2023/05/01 05:26:12;;;;;;;;;;;;;;;8.43;62.58;98904.59;5082112;28;20014;-76
2023/05/01 05:28:37;;;;;;;;;;;;;;;8.14;63.83;98901.03;5079105;28;19927;-76
2023/05/01 05:31:02;;;;;;;;;;;;;;;8.57;61.75;98897.19;5084710;28;19927;-76
2023/05/01 05:33:28;;;;;;;;;;;;;;;8.40;62.46;98902.44;5085353;28;19924;-76
2023/05/01 05:35:53;;;;;;;;;;;;;;;8.38;62.93;98895.72;5083973;28;19920;-76
2023/05/01 05:38:19;;;;;;;;;;;;;;;7.52;64.19;98898.97;5078569;28;19920;-76
2023/05/01 05:40:44;;;;;;;;;;;;;;;7.66;64.71;98891.59;5088183;28;19931;-76
2023/05/01 05:43:09;;;;;;;;;;;;;;;8.29;63.85;98889.94;5088367;28;19927;-76
2023/05/01 05:45:35;;;;;;;;;;;;;;;7.99;64.63;98890.03;5088076;28;19920;-76
2023/05/01 05:48:01;;;;;;;;;;;;;;;7.76;65.96;98892.66;5082854;28;19917;-76
2023/05/01 05:50:26;;;;;;;;;;;;;;;8.18;64.67;98888.06;5088150;28;20272;-76
2023/05/01 05:52:51;;;;;;;;;;;;;;;7.97;65.80;98886.78;5072092;28;19981;-76
2023/05/01 05:55:17;;;;;;;;;;;;;;;8.47;62.98;98887.16;5086149;28;19962;-76
2023/05/01 05:57:42;;;;;;;;;;;;;;;7.70;66.42;98890.13;5082492;28;19963;-76
2023/05/01 06:00:09;;;;;;;;;;;;;;;8.17;64.76;98892.56;5085687;28;19964;-76
2023/05/01 06:02:34;;;;;;;;;;;;;;;8.45;63.79;98883.94;5081772;28;19928;-76
2023/05/01 06:04:59;;;;;;;;;;;;;;;8.56;63.13;98884.94;5081809;28;20715;-76
2023/05/01 06:07:25;;;;;;;;;;;;;;;8.26;64.57;98891.22;5067105;28;19920;-76
2023/05/01 06:09:50;;;;;;;;;;;;;;;8.75;62.64;98884.56;5066938;28;21447;-76
2023/05/01 06:12:15;;;;;;;;;;;;;;;8.00;65.10;98883.66;5082474;28;19920;-76
2023/05/01 06:14:41;;;;;;;;;;;;;;;8.43;64.03;98885.97;5082425;28;19956;-76
2023/05/01 06:17:07;;;;;;;;;;;;;;;8.23;64.04;98883.66;5087359;28;20391;-76
2023/05/01 06:19:32;;;;;;;;;;;;;;;8.63;63.40;98878.44;5078906;28;20348;-76
2023/05/01 06:21:57;;;;;;;;;;;;;;;8.68;63.78;98877.72;5079445;28;19924;-76
2023/05/01 06:24:22;;;;;;;;;;;;;;;9.21;61.93;98875.59;5084134;28;19934;-76
2023/05/01 06:26:48;;;;;;;;;;;;;;;9.36;62.06;98878.53;5079227;28;19916;-76
2023/05/01 06:29:13;;;;;;;;;;;;;;;9.70;61.14;98874.03;5087245;28;20306;-76
2023/05/01 06:31:38;;;;;;;;;;;;;;;9.19;62.22;98871.53;5086268;28;20374;-76
2023/05/01 06:34:03;;;;;;;;;;;;;;;9.09;61.83;98874.81;5080095;28;20003;-76
2023/05/01 06:36:29;;;;;;;;;;;;;;;9.56;61.39;98870.88;5084559;28;19969;-76
2023/05/01 06:38:54;;;;;;;;;;;;;;;9.62;62.06;98863.78;5080212;28;19924;-76
2023/05/01 06:41:20;;;;;;;;;;;;;;;9.14;62.12;98877.59;5078306;28;19928;-76
2023/05/01 06:43:46;;;;;;;;;;;;;;;9.62;61.58;98866.44;5083624;28;19977;-76
2023/05/01 06:46:11;;;;;;;;;;;;;;;9.66;61.01;98872.88;5076891;28;19921;-76
2023/05/01 06:48:36;;;;;;;;;;;;;;;9.95;60.72;98860.28;5079275;28;20465;-76
2023/05/01 06:51:01;;;;;;;;;;;;;;;10.20;59.44;98864.16;5083182;28;19924;-76
2023/05/01 06:53:27;;;;;;;;;;;;;;;9.82;61.50;98866.75;5063745;28;20006;-76
2023/05/01 06:55:52;;;;;;;;;;;;;;;9.50;61.04;98865.72;5061472;28;20004;-76
2023/05/01 06:58:17;;;;;;;;;;;;;;;9.86;61.01;98856.41;5077396;28;19927;-76
2023/05/01 07:00:42;;;;;;;;;;;;;;;10.17;61.24;98861.19;5074647;28;19920;-76
2023/05/01 07:03:08;;;;;;;;;;;;;;;10.20;59.98;98856.16;5083537;28;19930;-76
2023/05/01 07:05:33;;;;;;;;;;;;;;;10.22;60.60;98858.59;5084504;28;19973;-77
2023/05/01 07:08:00;;;;;;;;;;;;;;;10.54;59.86;98860.38;5079833;28;19966;-77
2023/05/01 07:10:25;;;;;;;;;;;;;;;10.66;59.04;98862.91;5082884;28;19924;-76
2023/05/01 07:12:50;;;;;;;;;;;;;;;10.72;59.28;98850.44;5078505;28;19984;-76
2023/05/01 07:15:15;;;;;;;;;;;;;;;10.44;59.74;98849.56;5081522;28;19963;-77
2023/05/01 07:17:41;;;;;;;;;;;;;;;10.43;61.01;98853.28;5064152;28;19920;-76
2023/05/01 07:20:06;;;;;;;;;;;;;;;10.41;60.33;98846.59;5062210;28;19967;-76
2023/05/01 07:22:32;;;;;;;;;;;;;;;10.66;59.26;98854.88;5083375;28;19924;-76
2023/05/01 07:25:00;;;;;;;;;;;;;;;10.84;58.86;98854.59;5079378;28;20294;-77
2023/05/01 07:27:25;;;;;;;;;;;;;;;10.72;59.49;98845.09;5078087;28;19924;-77
2023/05/01 07:29:50;;;;;;;;;;;;;;;11.03;58.81;98844.41;5075543;28;19920;-76
2023/05/01 07:32:16;;;;;;;;;;;;;;;11.07;58.64;98845.50;5082064;28;20393;-76
2023/05/01 07:34:41;;;;;;;;;;;;;;;11.10;58.47;98834.28;5082410;28;19932;-76
2023/05/01 07:37:06;;;;;;;;;;;;;;;11.15;58.19;98831.69;5074344;28;19946;-76
2023/05/01 07:39:31;;;;;;;;;;;;;;;11.21;57.86;98836.81;5080927;28;20405;-76
2023/05/01 07:41:57;;;;;;;;;;;;;;;10.88;61.02;98834.34;5081489;28;20299;-76
2023/05/01 07:44:22;;;;;;;;;;;;;;;10.51;59.40;98834.16;5080430;28;20294;-76
2023/05/01 07:46:48;;;;;;;;;;;;;;;10.62;59.73;98832.44;5081077;28;19932;-76
2023/05/01 07:49:13;;;;;;;;;;;;;;;10.76;60.52;98823.00;5076987;28;19924;-76
2023/05/01 07:51:38;;;;;;;;;;;;;;;11.16;58.81;98820.75;5084153;28;19985;-76
2023/05/01 07:54:03;;;;;;;;;;;;;;;10.92;59.41;98821.31;5081571;28;19996;-76
2023/05/01 07:56:29;;;;;;;;;;;;;;;11.24;58.64;98816.81;5063663;28;19934;-76
2023/05/01 07:58:55;;;;;;;;;;;;;;;11.15;60.37;98813.78;5081193;28;19920;-76
2023/05/01 08:01:20;;;;;;;;;;;;;;;11.38;58.87;98812.66;5074318;28;20371;-76
2023/05/01 08:03:45;;;;;;;;;;;;;;;11.66;58.28;98800.88;5078315;28;19920;-77
2023/05/01 08:06:12;;;;;;;;;;;;;;;11.32;60.30;98811.00;5081489;28;21800;-76
2023/05/01 08:08:38;;;;;;;;;;;;;;;11.67;58.31;98795.28;5081260;28;19969;-76
2023/05/01 08:11:03;;;;;;;;;;;;;;;11.85;58.20;98799.41;5078333;28;19920;-76
2023/05/01 08:13:28;;;;;;;;;;;;;;;11.58;59.98;98799.47;5079320;28;21432;-76
2023/05/01 08:15:54;;;;;;;;;;;;;;;11.47;60.89;98795.09;5080319;28;19927;-76
2023/05/01 08:18:19;;;;;;;;;;;;;;;11.63;60.01;98793.34;5081546;28;19928;-76
2023/05/01 08:20:48;;;;;;;;;;;;;;;11.50;60.52;98793.78;5077160;28;20245;-76
2023/05/01 08:23:14;;;;;;;;;;;;;;;12.08;58.44;98792.88;5074752;28;20376;-76
2023/05/01 08:25:39;;;;;;;;;;;;;;;12.14;58.62;98800.69;5056236;28;20008;-77
2023/05/01 08:28:05;;;;;;;;;;;;;;;11.86;60.88;98793.81;5064772;28;19919;-76
2023/05/01 08:30:30;;;;;;;;;;;;;;;12.19;58.67;98792.66;5073664;28;20406;-76
2023/05/01 08:32:55;;;;;;;;;;;;;;;12.25;59.07;98786.28;5061364;28;19965;-77
2023/05/01 08:35:21;;;;;;;;;;;;;;;12.32;58.76;98788.72;5076838;28;19927;-76
2023/05/01 08:37:46;;;;;;;;;;;;;;;12.50;59.01;98791.75;5061569;28;19920;-77
2023/05/01 08:40:11;;;;;;;;;;;;;;;12.49;59.77;98787.44;5079928;28;20065;-76
2023/05/01 08:42:37;;;;;;;;;;;;;;;12.70;57.54;98780.28;5083803;28;20363;-76
2023/05/01 08:45:06;;;;;;;;;;;;;;;12.61;59.79;98780.00;5077584;28;19974;-77
2023/05/01 08:47:35;;;;;;;;;;;;;;;12.78;59.22;98777.09;5079348;28;20287;-77
2023/05/01 08:50:02;;;;;;;;;;;;;;;12.79;60.30;98784.06;5080819;28;20017;-76
2023/05/01 08:52:27;;;;;;;;;;;;;;;12.88;58.52;98768.28;5074929;28;19920;-76
2023/05/01 08:54:55;;;;;;;;;;;;;;;12.88;58.31;98768.28;5073698;28;20408;-76
2023/05/01 08:57:20;;;;;;;;;;;;;;;13.14;57.42;98770.78;5074435;28;20068;-76
2023/05/01 08:59:47;;;;;;;;;;;;;;;13.27;57.06;98769.44;5073454;28;19920;-76
2023/05/01 09:02:14;;;;;;;;;;;;;;;13.05;57.79;98764.34;5075008;28;19915;-76
2023/05/01 09:04:42;;;;;;;;;;;;;;;13.27;57.51;98764.09;5077134;28;19920;-76
2023/05/01 09:07:08;;;;;;;;;;;;;;;13.43;57.67;98766.47;5078837;28;19969;-76
2023/05/01 09:09:34;;;;;;;;;;;;;;;13.46;57.66;98757.09;5085578;28;20452;-77
2023/05/01 09:12:02;;;;;;;;;;;;;;;13.67;56.65;98760.59;5085051;28;19916;-76
2023/05/01 09:14:27;;;;;;;;;;;;;;;13.70;57.65;98754.66;5075867;28;19944;-77
2023/05/01 09:16:54;;;;;;;;;;;;;;;13.77;57.50;98760.56;5075705;28;20489;-77
2023/05/01 09:19:20;;;;;;;;;;;;;;;13.82;56.83;98745.28;5078609;28;19928;-77
2023/05/01 09:21:45;;;;;;;;;;;;;;;14.04;56.14;98753.00;5078960;28;19924;-77
2023/05/01 09:24:10;;;;;;;;;;;;;;;14.06;56.91;98748.16;5079035;28;19943;-77
2023/05/01 09:26:40;;;;;;;;;;;;;;;14.21;56.17;98743.53;5065222;28;19931;-77
2023/05/01 09:29:05;;;;;;;;;;;;;;;14.34;55.95;98738.69;5079008;28;19916;-77
2023/05/01 09:31:33;;;;;;;;;;;;;;;14.44;55.88;98742.13;5082049;28;20417;-77
2023/05/01 09:34:00;;;;;;;;;;;;;;;14.49;56.97;98741.28;5066917;28;20375;-77
2023/05/01 09:36:30;;;;;;;;;;;;;;;14.62;55.70;98733.44;5079021;28;19947;-77
2023/05/01 09:38:59;;;;;;;;;;;;;;;14.50;55.32;98740.22;5080292;28;19917;-77
2023/05/01 09:41:24;;;;;;;;;;;;;;;14.73;55.45;98728.81;5083365;28;19920;-77
2023/05/01 09:43:54;;;;;;;;;;;;;;;14.83;54.69;98723.41;5080954;28;19916;-77
2023/05/01 09:46:19;;;;;;;;;;;;;;;14.87;55.36;98721.75;5091896;28;19969;-77
2023/05/01 09:48:53;;;;;;;;;;;;;;;14.71;54.12;98722.91;5090504;28;19970;-77
2023/05/01 09:51:24;;;;;;;;;;;;;;;14.60;54.29;98718.69;5065562;28;19934;-77
2023/05/01 09:53:50;;;;;;;;;;;;;;;14.78;54.71;98713.47;5085972;28;19926;-77
2023/05/01 09:56:16;;;;;;;;;;;;;;;15.21;54.94;98706.44;5082065;28;19959;-77
2023/05/01 09:58:41;;;;;;;;;;;;;;;15.40;54.52;98707.34;5083775;28;19993;-77
2023/05/01 10:01:07;;;;;;;;;;;;;;;15.30;53.70;98704.75;5082636;28;20007;-77
2023/05/01 10:03:36;;;;;;;;;;;;;;;15.16;52.89;98711.06;5081879;28;19920;-77
2023/05/01 10:06:02;;;;;;;;;;;;;;;15.01;52.34;98703.91;5065864;28;20006;-77
2023/05/01 10:08:45;;;;;;;;;;;;;;;15.10;53.87;98715.66;5060012;28;19924;-77
2023/05/01 10:11:10;;;;;;;;;;;;;;;15.53;53.86;98706.69;5077967;28;19929;-77
2023/05/01 10:13:35;;;;;;;;;;;;;;;15.62;53.06;98699.63;5081451;28;20337;-77
2023/05/01 10:16:06;;;;;;;;;;;;;;;15.45;53.13;98701.13;5069196;28;20014;-77
2023/05/01 10:18:32;;;;;;;;;;;;;;;15.95;53.39;98697.94;5071012;28;20006;-77
2023/05/01 10:20:57;;;;;;;;;;;;;;;16.08;52.85;98701.81;5059555;28;19934;-77
2023/05/01 10:23:24;;;;;;;;;;;;;;;16.09;53.34;98696.16;5073148;28;19924;-77
2023/05/01 10:25:51;;;;;;;;;;;;;;;16.02;52.40;98687.63;5055433;28;20014;-77
2023/05/01 10:28:17;;;;;;;;;;;;;;;16.40;53.08;98693.88;5067989;28;19920;-77
2023/05/01 10:30:44;;;;;;;;;;;;;;;16.42;52.42;98692.47;5077372;28;19924;-77
2023/05/01 10:33:11;;;;;;;;;;;;;;;16.43;52.81;98696.78;5090902;28;19927;-77
2023/05/01 10:35:39;;;;;;;;;;;;;;;16.57;52.44;98694.22;5078892;28;19966;-77
2023/05/01 10:38:05;;;;;;;;;;;;;;;16.73;51.15;98686.72;5095107;28;19923;-77
2023/05/01 10:40:47;;;;;;;;;;;;;;;16.80;50.79;98681.75;5074953;28;19928;-77
2023/05/01 10:43:24;;;;;;;;;;;;;;;17.08;51.38;98683.47;5079426;28;19939;-77
2023/05/01 10:45:50;;;;;;;;;;;;;;;17.05;50.96;98678.66;5074721;28;19916;-77
2023/05/01 10:48:35;;;;;;;;;;;;;;;17.05;50.53;98679.47;5060350;28;20299;-77
2023/05/01 10:51:18;;;;;;;;;;;;;;;16.77;50.04;98677.75;5073387;28;20023;-77
2023/05/01 10:53:44;;;;;;;;;;;;;;;16.98;49.19;98673.66;5076062;28;20011;-77
2023/05/01 10:56:29;;;;;;;;;;;;;;;16.70;50.45;98665.72;5073700;28;20054;-77
2023/05/01 10:58:55;;;;;;;;;;;;;;;17.24;52.13;98665.94;5068463;28;20034;-77
2023/05/01 11:01:27;;;;;;;;;;;;;;;17.29;52.12;98659.66;5071478;28;19924;-77
2023/05/01 11:03:52;;;;;;;;;;;;;;;17.40;50.15;98653.78;5072675;28;19920;-78
2023/05/01 11:06:17;;;;;;;;;;;;;;;17.59;49.89;98645.63;5073564;28;20340;-78
2023/05/01 11:08:44;;;;;;;;;;;;;;;17.61;50.13;98648.84;5077882;28;19927;-77
2023/05/01 11:11:18;;;;;;;;;;;;;;;17.74;50.28;98651.56;5081170;28;20394;-77
2023/05/01 11:13:55;;;;;;;;;;;;;;;17.84;50.37;98654.03;5080701;28;19935;-77
2023/05/01 11:16:34;;;;;;;;;;;;;;;17.80;49.97;98649.56;5080013;28;19970;-77
2023/05/01 11:18:59;;;;;;;;;;;;;;;17.86;50.34;98646.47;5076727;28;20002;-77
2023/05/01 11:21:32;;;;;;;;;;;;;;;17.89;49.73;98642.34;5076595;28;20003;-78
2023/05/01 11:24:04;;;;;;;;;;;;;;;18.07;49.33;98641.44;5078966;28;20455;-78
2023/05/01 11:26:30;;;;;;;;;;;;;;;18.25;49.56;98642.41;5080204;28;19916;-78
2023/05/01 11:28:59;;;;;;;;;;;;;;;18.36;49.46;98646.50;5077085;28;19961;-78
2023/05/01 11:31:27;;;;;;;;;;;;;;;18.44;49.37;98643.91;5078426;28;19965;-77
2023/05/01 11:33:57;;;;;;;;;;;;;;;18.55;49.18;98636.38;5075444;28;19923;-77
2023/05/01 11:36:22;;;;;;;;;;;;;;;18.78;48.91;98635.31;5086734;28;19924;-78
2023/05/01 11:38:51;;;;;;;;;;;;;;;18.74;48.45;98626.19;5071431;28;19920;-78
2023/05/01 11:41:22;;;;;;;;;;;;;;;18.96;46.48;98631.59;5069107;28;20036;-77
2023/05/01 11:43:52;;;;;;;;;;;;;;;19.28;47.00;98623.22;5078156;28;19920;-78
2023/05/01 11:46:23;;;;;;;;;;;;;;;19.46;48.12;98621.44;5092064;28;19962;-78
2023/05/01 11:48:52;;;;;;;;;;;;;;;19.64;46.51;98620.38;5077636;28;19947;-78
2023/05/01 11:51:18;;;;;;;;;;;;;;;19.86;45.32;98616.78;5077154;28;19930;-78
2023/05/01 11:53:56;;;;;;;;;;;;;;;20.00;43.65;98618.28;5083275;28;20395;-77
2023/05/01 11:56:23;;;;;;;;;;;;;;;20.07;44.52;98607.75;5084540;28;19924;-77
2023/05/01 11:58:51;;;;;;;;;;;;;;;19.60;44.20;98607.78;5093641;28;19925;-77
2023/05/01 12:01:19;;;;;;;;;;;;;;;19.63;47.22;98615.28;5082821;28;19916;-77
2023/05/01 12:03:44;;;;;;;;;;;;;;;19.89;46.80;98605.34;5083986;28;20004;-77
2023/05/01 12:06:12;;;;;;;;;;;;;;;19.78;46.66;98610.25;5079167;28;20069;-77
2023/05/01 12:08:40;;;;;;;;;;;;;;;19.62;46.63;98613.66;5080525;28;19966;-78
2023/05/01 12:11:06;;;;;;;;;;;;;;;19.46;47.18;98609.81;5073166;28;19920;-77
2023/05/01 12:13:31;;;;;;;;;;;;;;;19.69;46.72;98614.03;5069125;28;20284;-77
2023/05/01 12:15:56;;;;;;;;;;;;;;;19.86;43.85;98609.47;5071424;28;20017;-77
2023/05/01 12:18:22;;;;;;;;;;;;;;;20.13;42.94;98603.00;5074139;28;20432;-77
2023/05/01 12:20:51;;;;;;;;;;;;;;;19.92;43.20;98610.13;5073118;28;19964;-77
2023/05/01 12:23:17;;;;;;;;;;;;;;;19.93;45.46;98609.81;5072129;28;19924;-77
2023/05/01 12:25:43;;;;;;;;;;;;;;;19.84;45.93;98603.56;5066790;28;20448;-77
2023/05/01 12:28:13;;;;;;;;;;;;;;;19.75;43.62;98600.03;5074511;28;19924;-77
2023/05/01 12:30:39;;;;;;;;;;;;;;;20.00;43.69;98595.81;5064508;28;21612;-78
2023/05/01 12:33:30;;;;;;;;;;;;;;;20.11;42.66;98597.09;5081685;28;19935;-78
2023/05/01 12:36:07;;;;;;;;;;;;;;;20.27;42.36;98598.25;5077772;28;20675;-77
2023/05/01 12:38:32;;;;;;;;;;;;;;;20.21;45.05;98602.22;5081821;28;19916;-77
2023/05/01 12:40:59;;;;;;;;;;;;;;;20.40;42.50;98593.81;5080664;28;20249;-77
2023/05/01 12:43:34;;;;;;;;;;;;;;;20.23;44.34;98597.28;5082299;28;19916;-77
2023/05/01 12:46:00;;;;;;;;;;;;;;;20.15;45.40;98592.63;5080516;28;19920;-77
2023/05/01 12:48:26;;;;;;;;;;;;;;;19.99;45.00;98594.19;5059006;28;20397;-77
2023/05/01 12:50:55;;;;;;;;;;;;;;;20.09;45.51;98588.50;5075134;28;19964;-77
2023/05/01 12:53:22;;;;;;;;;;;;;;;20.35;45.12;98583.13;5073751;28;19923;-78
2023/05/01 12:55:48;;;;;;;;;;;;;;;20.50;44.77;98586.16;5090645;28;19923;-77
2023/05/01 12:58:14;;;;;;;;;;;;;;;20.45;40.84;98582.78;5079143;28;19924;-78
2023/05/01 13:00:43;;;;;;;;;;;;;;;20.57;40.61;98570.22;5085312;28;19962;-78
2023/05/01 13:03:08;;;;;;;;;;;;;;;20.48;41.38;98568.59;5086951;28;19924;-78
2023/05/01 13:05:33;;;;;;;;;;;;;;;20.70;43.71;98565.72;5087515;28;20280;-78
2023/05/01 13:07:58;;;;;;;;;;;;;;;20.86;43.63;98564.88;5081896;28;20006;-78
2023/05/01 13:10:30;;;;;;;;;;;;;;;20.54;40.36;98568.13;5098797;28;19955;-78